sensor_id;sensor_type;location;lat;lon;timestamp;pressure;altitude;pressure_sealevel;temperature;humidity
69784;BME280;57054;51.978;4.498;2023-03-16T00:01:55;101700.19;;;5.54;91.82
69784;BME280;57054;51.978;4.498;2023-03-16T00:04:21;101696.75;;;5.53;91.97
69784;BME280;57054;51.978;4.498;2023-03-16T00:06:46;101691.53;;;5.53;91.94
69784;BME280;57054;51.978;4.498;2023-03-16T00:09:12;101689.81;;;5.54;92.01
69784;BME280;57054;51.978;4.498;2023-03-16T00:11:37;101684.59;;;5.54;92.11
69784;BME280;57054;51.978;4.498;2023-03-16T00:14:03;101681.16;;;5.53;92.01
69784;BME280;57054;51.978;4.498;2023-03-16T00:16:29;101682.88;;;5.53;91.99
69784;BME280;57054;51.978;4.498;2023-03-16T00:18:54;101684.59;;;5.52;91.73
69784;BME280;57054;51.978;4.498;2023-03-16T00:21:20;101685.47;;;5.53;91.95
69784;BME280;57054;51.978;4.498;2023-03-16T00:23:45;101673.34;;;5.52;91.92
69784;BME280;57054;51.978;4.498;2023-03-16T00:26:10;101680.31;;;5.51;92.04
69784;BME280;57054;51.978;4.498;2023-03-16T00:28:37;101677.72;;;5.51;92.00
69784;BME280;57054;51.978;4.498;2023-03-16T00:31:04;101675.97;;;5.52;92.07
69784;BME280;57054;51.978;4.498;2023-03-16T00:33:30;101662.13;;;5.51;91.99
69784;BME280;57054;51.978;4.498;2023-03-16T00:36:03;101651.72;;;5.51;92.07
69784;BME280;57054;51.978;4.498;2023-03-16T00:38:34;101654.31;;;5.51;92.26
69784;BME280;57054;51.978;4.498;2023-03-16T00:41:05;101652.56;;;5.52;92.31
69784;BME280;57054;51.978;4.498;2023-03-16T00:43:33;101649.13;;;5.51;92.41
69784;BME280;57054;51.978;4.498;2023-03-16T00:46:18;101638.72;;;5.51;92.54
69784;BME280;57054;51.978;4.498;2023-03-16T00:48:45;101644.78;;;5.50;92.25
69784;BME280;57054;51.978;4.498;2023-03-16T00:51:16;101653.44;;;5.51;92.31
69784;BME280;57054;51.978;4.498;2023-03-16T00:53:43;101645.63;;;5.51;92.11
69784;BME280;57054;51.978;4.498;2023-03-16T00:56:09;101634.41;;;5.50;91.91
69784;BME280;57054;51.978;4.498;2023-03-16T00:58:37;101630.06;;;5.49;92.22
69784;BME280;57054;51.978;4.498;2023-03-16T01:03:30;101627.44;;;5.51;92.46
69784;BME280;57054;51.978;4.498;2023-03-16T01:05:55;101619.66;;;5.51;92.60
69784;BME280;57054;51.978;4.498;2023-03-16T01:08:25;101622.25;;;5.51;92.50
69784;BME280;57054;51.978;4.498;2023-03-16T01:10:53;101622.25;;;5.51;92.58
69784;BME280;57054;51.978;4.498;2023-03-16T01:13:19;101617.06;;;5.51;92.85
69784;BME280;57054;51.978;4.498;2023-03-16T01:15:45;101618.78;;;5.52;92.78
69784;BME280;57054;51.978;4.498;2023-03-16T01:18:11;101616.19;;;5.52;92.78
69784;BME280;57054;51.978;4.498;2023-03-16T01:20:38;101617.06;;;5.52;92.87
69784;BME280;57054;51.978;4.498;2023-03-16T01:23:03;101612.75;;;5.51;92.91
69784;BME280;57054;51.978;4.498;2023-03-16T01:25:29;101597.16;;;5.51;92.62
69784;BME280;57054;51.978;4.498;2023-03-16T01:27:54;101608.41;;;5.53;92.91
69784;BME280;57054;51.978;4.498;2023-03-16T01:30:20;101594.53;;;5.53;93.04
69784;BME280;57054;51.978;4.498;2023-03-16T01:32:45;101601.47;;;5.52;93.01
69784;BME280;57054;51.978;4.498;2023-03-16T01:35:11;101593.66;;;5.52;93.07
69784;BME280;57054;51.978;4.498;2023-03-16T01:37:36;101592.81;;;5.53;92.94
69784;BME280;57054;51.978;4.498;2023-03-16T01:40:02;101587.63;;;5.53;92.88
69784;BME280;57054;51.978;4.498;2023-03-16T01:42:30;101585.88;;;5.52;92.91
69784;BME280;57054;51.978;4.498;2023-03-16T01:44:58;101587.63;;;5.53;92.95
69784;BME280;57054;51.978;4.498;2023-03-16T01:47:26;101584.13;;;5.53;93.08
69784;BME280;57054;51.978;4.498;2023-03-16T01:49:53;101590.22;;;5.53;93.00
69784;BME280;57054;51.978;4.498;2023-03-16T01:52:22;101582.41;;;5.55;93.08
69784;BME280;57054;51.978;4.498;2023-03-16T01:54:59;101572.03;;;5.53;93.10
69784;BME280;57054;51.978;4.498;2023-03-16T01:57:30;101575.47;;;5.55;93.35
69784;BME280;57054;51.978;4.498;2023-03-16T02:00:08;101565.94;;;5.56;93.39
69784;BME280;57054;51.978;4.498;2023-03-16T02:06:05;101566.78;;;5.56;93.34
69784;BME280;57054;51.978;4.498;2023-03-16T02:08:33;101565.06;;;5.57;93.32
69784;BME280;57054;51.978;4.498;2023-03-16T02:11:00;101559.03;;;5.53;92.59
69784;BME280;57054;51.978;4.498;2023-03-16T02:13:29;101552.09;;;5.52;92.68
69784;BME280;57054;51.978;4.498;2023-03-16T02:15:58;101549.50;;;5.52;92.83
69784;BME280;57054;51.978;4.498;2023-03-16T02:18:23;101549.50;;;5.52;92.64
69784;BME280;57054;51.978;4.498;2023-03-16T02:21:09;101544.31;;;5.52;92.90
69784;BME280;57054;51.978;4.498;2023-03-16T02:23:36;101543.44;;;5.53;92.93
69784;BME280;57054;51.978;4.498;2023-03-16T02:26:18;101538.25;;;5.53;92.74
69784;BME280;57054;51.978;4.498;2023-03-16T02:29:09;101527.84;;;5.53;92.97
69784;BME280;57054;51.978;4.498;2023-03-16T02:31:37;101526.13;;;5.52;93.05
69784;BME280;57054;51.978;4.498;2023-03-16T02:34:03;101525.25;;;5.55;93.05
69784;BME280;57054;51.978;4.498;2023-03-16T02:36:29;101530.44;;;5.55;93.03
69784;BME280;57054;51.978;4.498;2023-03-16T02:38:56;101523.50;;;5.55;93.25
69784;BME280;57054;51.978;4.498;2023-03-16T02:41:21;101521.75;;;5.56;93.34
69784;BME280;57054;51.978;4.498;2023-03-16T02:43:50;101526.09;;;5.57;93.47
69784;BME280;57054;51.978;4.498;2023-03-16T02:46:19;101522.59;;;5.58;93.69
69784;BME280;57054;51.978;4.498;2023-03-16T02:49:14;101526.94;;;5.57;93.75
69784;BME280;57054;51.978;4.498;2023-03-16T02:51:41;101527.78;;;5.58;94.00
69784;BME280;57054;51.978;4.498;2023-03-16T02:54:06;101525.19;;;5.58;93.82
69784;BME280;57054;51.978;4.498;2023-03-16T02:56:32;101527.78;;;5.58;93.84
69784;BME280;57054;51.978;4.498;2023-03-16T02:58:57;101520.88;;;5.58;93.98
69784;BME280;57054;51.978;4.498;2023-03-16T03:01:23;101520.00;;;5.60;94.07
69784;BME280;57054;51.978;4.498;2023-03-16T03:03:48;101516.53;;;5.59;94.21
69784;BME280;57054;51.978;4.498;2023-03-16T03:06:14;101514.78;;;5.60;94.14
69784;BME280;57054;51.978;4.498;2023-03-16T03:08:40;101512.19;;;5.60;94.30
69784;BME280;57054;51.978;4.498;2023-03-16T03:11:07;101505.28;;;5.58;94.31
69784;BME280;57054;51.978;4.498;2023-03-16T03:13:33;101500.09;;;5.58;94.62
69784;BME280;57054;51.978;4.498;2023-03-16T03:15:58;101498.34;;;5.59;94.51
69784;BME280;57054;51.978;4.498;2023-03-16T03:18:24;101501.81;;;5.60;94.54
69784;BME280;57054;51.978;4.498;2023-03-16T03:20:49;101497.44;;;5.60;94.70
69784;BME280;57054;51.978;4.498;2023-03-16T03:23:15;101491.41;;;5.60;94.60
69784;BME280;57054;51.978;4.498;2023-03-16T03:25:41;101483.59;;;5.60;94.79
69784;BME280;57054;51.978;4.498;2023-03-16T03:28:07;101493.16;;;5.61;94.96
69784;BME280;57054;51.978;4.498;2023-03-16T03:30:33;101490.53;;;5.61;95.02
69784;BME280;57054;51.978;4.498;2023-03-16T03:32:59;101483.59;;;5.61;95.06
69784;BME280;57054;51.978;4.498;2023-03-16T03:35:25;101482.75;;;5.61;95.05
69784;BME280;57054;51.978;4.498;2023-03-16T03:37:51;101487.06;;;5.62;95.15
69784;BME280;57054;51.978;4.498;2023-03-16T03:40:18;101481.84;;;5.62;95.26
69784;BME280;57054;51.978;4.498;2023-03-16T03:42:43;101481.00;;;5.61;95.31
69784;BME280;57054;51.978;4.498;2023-03-16T03:45:10;101472.34;;;5.61;95.17
69784;BME280;57054;51.978;4.498;2023-03-16T03:47:37;101474.06;;;5.62;95.35
69784;BME280;57054;51.978;4.498;2023-03-16T03:50:03;101470.63;;;5.60;95.14
69784;BME280;57054;51.978;4.498;2023-03-16T03:52:28;101477.56;;;5.61;95.23
69784;BME280;57054;51.978;4.498;2023-03-16T03:54:54;101476.66;;;5.60;95.21
69784;BME280;57054;51.978;4.498;2023-03-16T03:57:19;101467.16;;;5.61;95.33
69784;BME280;57054;51.978;4.498;2023-03-16T03:59:44;101470.59;;;5.61;95.41
69784;BME280;57054;51.978;4.498;2023-03-16T04:02:11;101470.59;;;5.61;95.47
69784;BME280;57054;51.978;4.498;2023-03-16T04:04:37;101465.41;;;5.61;95.31
69784;BME280;57054;51.978;4.498;2023-03-16T04:07:03;101465.41;;;5.61;95.44
69784;BME280;57054;51.978;4.498;2023-03-16T04:09:29;101469.75;;;5.62;95.49
69784;BME280;57054;51.978;4.498;2023-03-16T04:11:59;101462.81;;;5.61;95.37
69784;BME280;57054;51.978;4.498;2023-03-16T04:14:25;101455.88;;;5.62;95.58
69784;BME280;57054;51.978;4.498;2023-03-16T04:16:50;101461.06;;;5.63;95.47
69784;BME280;57054;51.978;4.498;2023-03-16T04:19:15;101456.75;;;5.62;95.52
69784;BME280;57054;51.978;4.498;2023-03-16T04:21:41;101456.75;;;5.61;95.29
69784;BME280;57054;51.978;4.498;2023-03-16T04:24:06;101459.38;;;5.61;95.42
69784;BME280;57054;51.978;4.498;2023-03-16T04:26:31;101461.97;;;5.61;95.29
69784;BME280;57054;51.978;4.498;2023-03-16T04:28:58;101451.56;;;5.62;95.55
69784;BME280;57054;51.978;4.498;2023-03-16T04:31:24;101448.06;;;5.63;95.53
69784;BME280;57054;51.978;4.498;2023-03-16T04:33:49;101451.50;;;5.64;95.71
69784;BME280;57054;51.978;4.498;2023-03-16T04:36:18;101446.31;;;5.64;95.86
69784;BME280;57054;51.978;4.498;2023-03-16T04:38:44;101431.59;;;5.64;95.79
69784;BME280;57054;51.978;4.498;2023-03-16T04:41:09;101437.66;;;5.65;95.87
69784;BME280;57054;51.978;4.498;2023-03-16T04:43:35;101439.41;;;5.64;95.77
69784;BME280;57054;51.978;4.498;2023-03-16T04:46:02;101431.59;;;5.64;95.85
69784;BME280;57054;51.978;4.498;2023-03-16T04:48:28;101437.66;;;5.65;95.99
69784;BME280;57054;51.978;4.498;2023-03-16T04:50:54;101422.06;;;5.65;96.17
69784;BME280;57054;51.978;4.498;2023-03-16T04:53:19;101429.88;;;5.65;96.24
69784;BME280;57054;51.978;4.498;2023-03-16T04:55:45;101421.22;;;5.64;96.15
69784;BME280;57054;51.978;4.498;2023-03-16T04:58:11;101414.28;;;5.65;96.36
69784;BME280;57054;51.978;4.498;2023-03-16T05:00:38;101414.28;;;5.65;96.39
69784;BME280;57054;51.978;4.498;2023-03-16T05:03:05;101416.88;;;5.65;96.26
69784;BME280;57054;51.978;4.498;2023-03-16T05:05:30;101411.66;;;5.65;96.39
69784;BME280;57054;51.978;4.498;2023-03-16T05:07:56;101414.28;;;5.65;96.38
69784;BME280;57054;51.978;4.498;2023-03-16T05:10:22;101408.22;;;5.66;96.39
69784;BME280;57054;51.978;4.498;2023-03-16T05:12:47;101417.72;;;5.67;96.57
69784;BME280;57054;51.978;4.498;2023-03-16T05:15:13;101405.59;;;5.66;96.52
69784;BME280;57054;51.978;4.498;2023-03-16T05:17:40;101409.06;;;5.66;96.40
69784;BME280;57054;51.978;4.498;2023-03-16T05:20:07;101396.06;;;5.65;96.42
69784;BME280;57054;51.978;4.498;2023-03-16T05:22:33;101399.53;;;5.64;96.38
69784;BME280;57054;51.978;4.498;2023-03-16T05:25:00;101392.63;;;5.64;96.62
69784;BME280;57054;51.978;4.498;2023-03-16T05:27:28;101396.94;;;5.65;96.69
69784;BME280;57054;51.978;4.498;2023-03-16T05:29:54;101390.03;;;5.64;96.74
69784;BME280;57054;51.978;4.498;2023-03-16T05:32:20;101396.94;;;5.64;96.75
69784;BME280;57054;51.978;4.498;2023-03-16T05:34:45;101385.69;;;5.65;96.88
69784;BME280;57054;51.978;4.498;2023-03-16T05:37:11;101391.72;;;5.65;97.03
69784;BME280;57054;51.978;4.498;2023-03-16T05:39:36;101387.44;;;5.64;96.92
69784;BME280;57054;51.978;4.498;2023-03-16T05:42:02;101391.75;;;5.64;96.99
69784;BME280;57054;51.978;4.498;2023-03-16T05:44:27;101389.16;;;5.64;96.91
69784;BME280;57054;51.978;4.498;2023-03-16T05:46:53;101386.53;;;5.64;97.09
69784;BME280;57054;51.978;4.498;2023-03-16T05:49:18;101378.75;;;5.64;97.13
69784;BME280;57054;51.978;4.498;2023-03-16T05:51:44;101387.44;;;5.64;97.30
69784;BME280;57054;51.978;4.498;2023-03-16T05:54:09;101390.03;;;5.66;97.17
69784;BME280;57054;51.978;4.498;2023-03-16T05:56:34;101382.22;;;5.66;97.31
69784;BME280;57054;51.978;4.498;2023-03-16T05:59:00;101383.09;;;5.65;97.34
69784;BME280;57054;51.978;4.498;2023-03-16T06:01:26;101386.53;;;5.65;97.42
69784;BME280;57054;51.978;4.498;2023-03-16T06:03:52;101387.41;;;5.66;97.41
69784;BME280;57054;51.978;4.498;2023-03-16T06:06:18;101378.75;;;5.64;97.31
69784;BME280;57054;51.978;4.498;2023-03-16T06:08:44;101384.84;;;5.61;97.10
69784;BME280;57054;51.978;4.498;2023-03-16T06:11:10;101379.66;;;5.61;97.32
69784;BME280;57054;51.978;4.498;2023-03-16T06:13:37;101370.13;;;5.62;97.51
69784;BME280;57054;51.978;4.498;2023-03-16T06:16:02;101364.06;;;5.61;97.47
69784;BME280;57054;51.978;4.498;2023-03-16T06:18:28;101365.81;;;5.62;97.62
69784;BME280;57054;51.978;4.498;2023-03-16T06:20:53;101366.66;;;5.61;97.77
69784;BME280;57054;51.978;4.498;2023-03-16T06:23:19;101380.50;;;5.63;97.76
69784;BME280;57054;51.978;4.498;2023-03-16T06:25:46;101364.03;;;5.64;97.88
69784;BME280;57054;51.978;4.498;2023-03-16T06:28:12;101369.25;;;5.64;97.93
69784;BME280;57054;51.978;4.498;2023-03-16T06:30:38;101365.75;;;5.65;97.83
69784;BME280;57054;51.978;4.498;2023-03-16T06:33:03;101360.53;;;5.65;97.56
69784;BME280;57054;51.978;4.498;2023-03-16T06:35:29;101357.09;;;5.65;97.91
69784;BME280;57054;51.978;4.498;2023-03-16T06:37:54;101346.69;;;5.65;97.82
69784;BME280;57054;51.978;4.498;2023-03-16T06:40:19;101344.09;;;5.65;98.26
69784;BME280;57054;51.978;4.498;2023-03-16T06:42:45;101338.91;;;5.66;97.98
69784;BME280;57054;51.978;4.498;2023-03-16T06:45:10;101336.28;;;5.66;98.06
69784;BME280;57054;51.978;4.498;2023-03-16T06:47:36;101327.59;;;5.67;98.09
69784;BME280;57054;51.978;4.498;2023-03-16T06:50:02;101337.16;;;5.67;98.33
69784;BME280;57054;51.978;4.498;2023-03-16T06:52:27;101336.28;;;5.66;97.88
69784;BME280;57054;51.978;4.498;2023-03-16T06:54:52;101339.78;;;5.64;97.80
69784;BME280;57054;51.978;4.498;2023-03-16T06:57:18;101335.47;;;5.63;97.75
69784;BME280;57054;51.978;4.498;2023-03-16T06:59:43;101332.03;;;5.62;97.85
69784;BME280;57054;51.978;4.498;2023-03-16T07:02:11;101341.53;;;5.63;97.95
69784;BME280;57054;51.978;4.498;2023-03-16T07:04:38;101329.44;;;5.62;98.27
69784;BME280;57054;51.978;4.498;2023-03-16T07:07:03;101328.53;;;5.62;97.99
69784;BME280;57054;51.978;4.498;2023-03-16T07:09:28;101327.69;;;5.61;97.98
69784;BME280;57054;51.978;4.498;2023-03-16T07:11:54;101325.09;;;5.61;98.05
69784;BME280;57054;51.978;4.498;2023-03-16T07:14:19;101333.75;;;5.62;98.33
69784;BME280;57054;51.978;4.498;2023-03-16T07:16:46;101329.38;;;5.64;98.29
69784;BME280;57054;51.978;4.498;2023-03-16T07:19:12;101325.06;;;5.64;98.38
69784;BME280;57054;51.978;4.498;2023-03-16T07:21:37;101322.47;;;5.64;98.37
69784;BME280;57054;51.978;4.498;2023-03-16T07:24:07;101317.25;;;5.66;98.30
69784;BME280;57054;51.978;4.498;2023-03-16T07:26:33;101321.56;;;5.67;98.40
69784;BME280;57054;51.978;4.498;2023-03-16T07:28:58;101334.53;;;5.68;98.48
69784;BME280;57054;51.978;4.498;2023-03-16T07:31:24;101322.38;;;5.69;98.42
69784;BME280;57054;51.978;4.498;2023-03-16T07:33:49;101337.13;;;5.68;98.47
69784;BME280;57054;51.978;4.498;2023-03-16T07:36:15;101337.13;;;5.70;98.35
69784;BME280;57054;51.978;4.498;2023-03-16T07:38:41;101327.56;;;5.70;98.33
69784;BME280;57054;51.978;4.498;2023-03-16T07:41:06;101330.16;;;5.72;98.35
69784;BME280;57054;51.978;4.498;2023-03-16T07:43:32;101333.59;;;5.72;98.41
69784;BME280;57054;51.978;4.498;2023-03-16T07:45:57;101330.16;;;5.72;98.29
69784;BME280;57054;51.978;4.498;2023-03-16T07:48:23;101340.56;;;5.72;98.03
69784;BME280;57054;51.978;4.498;2023-03-16T07:50:49;101330.16;;;5.72;98.14
69784;BME280;57054;51.978;4.498;2023-03-16T07:53:14;101331.91;;;5.71;98.14
69784;BME280;57054;51.978;4.498;2023-03-16T07:55:41;101337.94;;;5.73;98.16
69784;BME280;57054;51.978;4.498;2023-03-16T07:58:07;101333.59;;;5.74;98.08
69784;BME280;57054;51.978;4.498;2023-03-16T08:00:34;101332.72;;;5.75;98.09
69784;BME280;57054;51.978;4.498;2023-03-16T08:02:59;101333.59;;;5.75;98.15
69784;BME280;57054;51.978;4.498;2023-03-16T08:05:26;101342.19;;;5.79;98.18
69784;BME280;57054;51.978;4.498;2023-03-16T08:07:52;101327.44;;;5.80;98.21
69784;BME280;57054;51.978;4.498;2023-03-16T08:10:17;101335.25;;;5.80;98.29
69784;BME280;57054;51.978;4.498;2023-03-16T08:12:43;101331.78;;;5.82;98.24
69784;BME280;57054;51.978;4.498;2023-03-16T08:15:09;101334.31;;;5.84;98.14
69784;BME280;57054;51.978;4.498;2023-03-16T08:17:36;101336.91;;;5.85;98.13
69784;BME280;57054;51.978;4.498;2023-03-16T08:20:03;101338.66;;;5.85;98.16
69784;BME280;57054;51.978;4.498;2023-03-16T08:22:39;101332.59;;;5.86;97.94
69784;BME280;57054;51.978;4.498;2023-03-16T08:25:06;101332.59;;;5.86;97.96
69784;BME280;57054;51.978;4.498;2023-03-16T08:27:34;101330.81;;;5.88;98.11
69784;BME280;57054;51.978;4.498;2023-03-16T08:30:00;101323.03;;;5.86;97.94
69784;BME280;57054;51.978;4.498;2023-03-16T08:32:32;101322.19;;;5.86;97.58
69784;BME280;57054;51.978;4.498;2023-03-16T08:34:57;101319.53;;;5.87;97.35
69784;BME280;57054;51.978;4.498;2023-03-16T08:37:24;101318.69;;;5.88;97.27
69784;BME280;57054;51.978;4.498;2023-03-16T08:39:50;101319.53;;;5.89;97.31
69784;BME280;57054;51.978;4.498;2023-03-16T08:42:16;101321.19;;;5.93;97.43
69784;BME280;57054;51.978;4.498;2023-03-16T08:44:41;101321.19;;;5.94;97.43
69784;BME280;57054;51.978;4.498;2023-03-16T08:47:08;101322.94;;;5.95;97.02
69784;BME280;57054;51.978;4.498;2023-03-16T08:49:35;101322.94;;;5.97;97.03
69784;BME280;57054;51.978;4.498;2023-03-16T08:52:01;101314.22;;;6.00;96.69
69784;BME280;57054;51.978;4.498;2023-03-16T08:54:26;101317.66;;;6.02;96.64
69784;BME280;57054;51.978;4.498;2023-03-16T08:56:52;101311.59;;;6.03;96.17
69784;BME280;57054;51.978;4.498;2023-03-16T08:59:17;101306.38;;;6.04;95.88
69784;BME280;57054;51.978;4.498;2023-03-16T09:01:42;101306.31;;;6.07;95.91
69784;BME280;57054;51.978;4.498;2023-03-16T09:04:08;101306.28;;;6.09;95.71
69784;BME280;57054;51.978;4.498;2023-03-16T09:06:33;101312.31;;;6.11;95.52
69784;BME280;57054;51.978;4.498;2023-03-16T09:09:00;101301.91;;;6.12;94.66
69784;BME280;57054;51.978;4.498;2023-03-16T09:11:25;101291.50;;;6.12;94.09
69784;BME280;57054;51.978;4.498;2023-03-16T09:13:54;101292.31;;;6.16;94.20
69784;BME280;57054;51.978;4.498;2023-03-16T09:16:20;101290.53;;;6.18;93.86
69784;BME280;57054;51.978;4.498;2023-03-16T09:18:50;101286.22;;;6.19;92.94
69784;BME280;57054;51.978;4.498;2023-03-16T09:21:15;101290.50;;;6.21;93.46
69784;BME280;57054;51.978;4.498;2023-03-16T09:23:41;101299.13;;;6.23;93.41
69784;BME280;57054;51.978;4.498;2023-03-16T09:26:10;101296.50;;;6.26;93.13
69784;BME280;57054;51.978;4.498;2023-03-16T09:28:37;101293.88;;;6.29;93.59
69784;BME280;57054;51.978;4.498;2023-03-16T09:31:03;101300.72;;;6.33;93.26
69784;BME280;57054;51.978;4.498;2023-03-16T09:33:29;101290.31;;;6.35;92.81
69784;BME280;57054;51.978;4.498;2023-03-16T09:35:56;101292.84;;;6.38;92.31
69784;BME280;57054;51.978;4.498;2023-03-16T09:38:24;101290.16;;;6.43;92.40
69784;BME280;57054;51.978;4.498;2023-03-16T09:40:56;101286.66;;;6.45;92.50
69784;BME280;57054;51.978;4.498;2023-03-16T09:46:09;101286.50;;;6.53;91.63
69784;BME280;57054;51.978;4.498;2023-03-16T09:48:37;101281.25;;;6.58;91.49
69784;BME280;57054;51.978;4.498;2023-03-16T09:51:52;101279.44;;;6.61;91.40
69784;BME280;57054;51.978;4.498;2023-03-16T09:53:54;101280.22;;;6.66;90.83
69784;BME280;57054;51.978;4.498;2023-03-16T09:56:32;101287.94;;;6.71;90.86
69784;BME280;57054;51.978;4.498;2023-03-16T09:59:00;101282.66;;;6.76;90.00
69784;BME280;57054;51.978;4.498;2023-03-16T10:01:51;101287.75;;;6.82;89.61
69784;BME280;57054;51.978;4.498;2023-03-16T10:04:42;101285.88;;;6.91;89.77
69784;BME280;57054;51.978;4.498;2023-03-16T10:10:16;101273.53;;;7.01;87.67
69784;BME280;57054;51.978;4.498;2023-03-16T10:12:46;101276.91;;;7.06;87.42
69784;BME280;57054;51.978;4.498;2023-03-16T10:15:26;101284.59;;;7.13;86.71
69784;BME280;57054;51.978;4.498;2023-03-16T10:18:02;101270.56;;;7.20;87.42
69784;BME280;57054;51.978;4.498;2023-03-16T10:20:33;101273.09;;;7.24;87.41
69784;BME280;57054;51.978;4.498;2023-03-16T10:22:59;101277.34;;;7.28;87.53
69784;BME280;57054;51.978;4.498;2023-03-16T10:25:40;101264.28;;;7.30;86.84
69784;BME280;57054;51.978;4.498;2023-03-16T10:28:13;101265.06;;;7.35;86.28
69784;BME280;57054;51.978;4.498;2023-03-16T10:30:39;101262.34;;;7.40;86.64
69784;BME280;57054;51.978;4.498;2023-03-16T10:33:24;101260.50;;;7.45;85.79
69784;BME280;57054;51.978;4.498;2023-03-16T10:43:46;101240.16;;;7.62;86.65
69784;BME280;57054;51.978;4.498;2023-03-16T10:46:13;101233.16;;;7.64;84.62
69784;BME280;57054;51.978;4.498;2023-03-16T10:48:38;101227.84;;;7.67;83.71
69784;BME280;57054;51.978;4.498;2023-03-16T10:51:09;101227.75;;;7.72;84.90
69784;BME280;57054;51.978;4.498;2023-03-16T10:53:39;101224.22;;;7.75;85.18
69784;BME280;57054;51.978;4.498;2023-03-16T10:56:12;101221.56;;;7.78;84.59
69784;BME280;57054;51.978;4.498;2023-03-16T10:58:44;101207.56;;;7.80;82.65
69784;BME280;57054;51.978;4.498;2023-03-16T11:01:25;101217.94;;;7.83;84.40
69784;BME280;57054;51.978;4.498;2023-03-16T11:03:56;101217.03;;;7.86;83.28
69784;BME280;57054;51.978;4.498;2023-03-16T11:06:24;101219.53;;;7.89;83.77
69784;BME280;57054;51.978;4.498;2023-03-16T11:08:51;101220.38;;;7.91;83.82
69784;BME280;57054;51.978;4.498;2023-03-16T11:11:29;101210.78;;;7.93;82.64
69784;BME280;57054;51.978;4.498;2023-03-16T11:13:58;101211.56;;;7.97;82.68
69784;BME280;57054;51.978;4.498;2023-03-16T11:16:40;101214.94;;;8.00;83.48
69784;BME280;57054;51.978;4.498;2023-03-16T11:19:18;101205.34;;;8.02;83.16
69784;BME280;57054;51.978;4.498;2023-03-16T11:24:41;101203.38;;;8.11;83.10
69784;BME280;57054;51.978;4.498;2023-03-16T11:32:36;101197.16;;;8.16;81.46
69784;BME280;57054;51.978;4.498;2023-03-16T11:35:11;101197.97;;;8.18;81.98
69784;BME280;57054;51.978;4.498;2023-03-16T11:37:58;101190.94;;;8.22;81.47
69784;BME280;57054;51.978;4.498;2023-03-16T11:40:35;101187.38;;;8.26;81.12
69784;BME280;57054;51.978;4.498;2023-03-16T11:56:38;101187.47;;;8.56;81.78
69784;BME280;57054;51.978;4.498;2023-03-16T12:02:00;101174.16;;;8.67;79.94
69784;BME280;57054;51.978;4.498;2023-03-16T12:04:38;101175.72;;;8.72;79.88
69784;BME280;57054;51.978;4.498;2023-03-16T12:09:51;101171.97;;;8.82;79.38
69784;BME280;57054;51.978;4.498;2023-03-16T12:14:52;101165.59;;;8.91;76.79
69784;BME280;57054;51.978;4.498;2023-03-16T12:17:28;101156.81;;;8.95;75.41
69784;BME280;57054;51.978;4.498;2023-03-16T12:20:02;101157.56;;;8.99;75.14
69784;BME280;57054;51.978;4.498;2023-03-16T12:25:26;101145.09;;;9.09;76.49
69784;BME280;57054;51.978;4.498;2023-03-16T12:27:56;101125.03;;;9.09;75.09
69784;BME280;57054;51.978;4.498;2023-03-16T12:30:33;101126.56;;;9.16;74.03
69784;BME280;57054;51.978;4.498;2023-03-16T12:33:25;101132.44;;;9.25;74.95
69784;BME280;57054;51.978;4.498;2023-03-16T12:38:51;101127.69;;;9.37;74.57
69784;BME280;57054;51.978;4.498;2023-03-16T12:44:45;101110.56;;;9.55;75.44
69784;BME280;57054;51.978;4.498;2023-03-16T12:50:06;101127.75;;;9.63;73.19
69784;BME280;57054;51.978;4.498;2023-03-16T12:52:42;101119.78;;;9.66;73.91
69784;BME280;57054;51.978;4.498;2023-03-16T12:55:18;101111.91;;;9.67;72.73
69784;BME280;57054;51.978;4.498;2023-03-16T12:57:47;101124.88;;;9.70;72.59
69784;BME280;57054;51.978;4.498;2023-03-16T13:00:13;101111.72;;;9.73;72.38
69784;BME280;57054;51.978;4.498;2023-03-16T13:02:51;101116.78;;;9.78;72.18
69784;BME280;57054;51.978;4.498;2023-03-16T13:05:36;101099.31;;;9.78;72.01
69784;BME280;57054;51.978;4.498;2023-03-16T13:08:14;101103.63;;;9.81;70.22
69784;BME280;57054;51.978;4.498;2023-03-16T13:10:41;101108.81;;;9.83;70.61
69784;BME280;57054;51.978;4.498;2023-03-16T13:13:12;101094.72;;;9.87;71.72
69784;BME280;57054;51.978;4.498;2023-03-16T13:15:39;101083.22;;;9.91;70.84
69784;BME280;57054;51.978;4.498;2023-03-16T13:20:34;101094.16;;;10.02;70.18
69784;BME280;57054;51.978;4.498;2023-03-16T13:25:44;101086.75;;;10.15;70.70
69784;BME280;57054;51.978;4.498;2023-03-16T13:28:27;101085.72;;;10.21;68.70
69784;BME280;57054;51.978;4.498;2023-03-16T13:30:53;101077.72;;;10.24;68.68
69784;BME280;57054;51.978;4.498;2023-03-16T13:33:22;101070.66;;;10.26;69.05
69784;BME280;57054;51.978;4.498;2023-03-16T13:35:50;101053.19;;;10.28;69.12
69784;BME280;57054;51.978;4.498;2023-03-16T13:38:17;101064.50;;;10.28;69.19
69784;BME280;57054;51.978;4.498;2023-03-16T13:40:45;101066.16;;;10.31;67.18
69784;BME280;57054;51.978;4.498;2023-03-16T13:43:16;101059.91;;;10.35;67.01
69784;BME280;57054;51.978;4.498;2023-03-16T13:45:42;101065.81;;;10.40;66.97
69784;BME280;57054;51.978;4.498;2023-03-16T13:48:14;101056.03;;;10.45;67.13
69784;BME280;57054;51.978;4.498;2023-03-16T13:50:41;101052.41;;;10.49;67.15
69784;BME280;57054;51.978;4.498;2023-03-16T13:53:30;101056.78;;;10.49;66.47
69784;BME280;57054;51.978;4.498;2023-03-16T13:55:58;101050.66;;;10.50;66.07
69784;BME280;57054;51.978;4.498;2023-03-16T13:58:32;101051.56;;;10.49;64.65
69784;BME280;57054;51.978;4.498;2023-03-16T14:01:00;101046.31;;;10.49;65.03
69784;BME280;57054;51.978;4.498;2023-03-16T14:03:32;101048.03;;;10.50;65.31
69784;BME280;57054;51.978;4.498;2023-03-16T14:05:58;101030.56;;;10.50;63.62
69784;BME280;57054;51.978;4.498;2023-03-16T14:08:24;101043.59;;;10.52;65.18
69784;BME280;57054;51.978;4.498;2023-03-16T14:10:52;101037.38;;;10.54;65.53
69784;BME280;57054;51.978;4.498;2023-03-16T14:15:58;101028.47;;;10.59;64.79